Time;durP1;ratioP1;P1;durP2;ratioP2;P2;SDS_P1;SDS_P2;PMS_P1;PMS_P2;Temp;Humidity;BMP_temperature;BMP_pressure;BME280_temperature;BME280_humidity;BME280_pressure;Samples;Min_cycle;Max_cycle;Signal;HPM_P1;HPM_P2
2021/11/22 00:04:40;;;;;;;32.48;13.30;;;;;;;7.45;100.00;100064.98;713756;1184;113961;-74
2021/11/22 00:19:42;;;;;;;21.73;10.45;;;;;;;7.32;100.00;100080.75;713983;1199;115360;-75
2021/11/22 00:34:45;;;;;;;20.47;9.57;;;;;;;7.09;100.00;100085.98;715014;1203;115608;-74
2021/11/22 00:49:47;;;;;;;13.78;7.90;;;;;;;7.05;100.00;100109.78;713750;1202;114622;-74
2021/11/22 01:04:50;;;;;;;8.30;5.15;;;;;;;7.01;100.00;100122.25;714918;1175;114967;-75
2021/11/22 01:19:53;;;;;;;21.73;13.18;;;;;;;6.92;100.00;100135.98;714117;1203;115194;-76
2021/11/22 01:34:56;;;;;;;9.50;4.80;;;;;;;6.88;100.00;100143.20;713684;1202;115455;-75
2021/11/22 01:49:58;;;;;;;6.73;3.33;;;;;;;6.76;100.00;100157.16;713737;1184;113897;-75
2021/11/22 02:05:00;;;;;;;7.38;3.60;;;;;;;6.93;100.00;100174.98;713905;1200;113596;-75
2021/11/22 02:20:07;;;;;;;10.83;4.67;;;;;;;6.95;100.00;100183.52;713822;1199;114786;-76
2021/11/22 02:35:14;;;;;;;2.88;1.88;;;;;;;6.73;100.00;100186.91;713952;1203;115427;-75
2021/11/22 02:50:21;;;;;;;5.43;2.33;;;;;;;6.47;100.00;100207.86;713660;1176;114177;-75
2021/11/22 03:05:24;;;;;;;9.08;4.35;;;;;;;6.43;100.00;100231.66;713835;1176;113887;-75
2021/11/22 03:20:27;;;;;;;17.28;7.10;;;;;;;6.42;100.00;100249.05;713658;1178;113490;-75
2021/11/22 03:35:29;;;;;;;12.87;6.07;;;;;;;6.41;100.00;100262.20;713899;1177;113840;-76
2021/11/22 03:50:33;;;;;;;13.40;5.60;;;;;;;6.20;100.00;100282.78;713787;1175;113996;-75
2021/11/22 04:05:35;;;;;;;13.30;6.43;;;;;;;6.02;100.00;100303.95;713800;1179;113197;-75
2021/11/22 04:20:37;;;;;;;12.78;5.93;;;;;;;5.88;100.00;100323.08;713793;1203;113943;-75
2021/11/22 04:35:40;;;;;;;13.07;5.40;;;;;;;5.78;100.00;100346.31;713696;1178;114337;-75
2021/11/22 04:50:42;;;;;;;22.47;11.03;;;;;;;5.89;100.00;100347.38;713961;1205;113845;-74
2021/11/22 05:05:44;;;;;;;43.90;19.17;;;;;;;5.95;100.00;100360.80;714507;1202;113978;-74
2021/11/22 05:20:47;;;;;;;183.60;47.53;;;;;;;5.84;100.00;100378.91;714142;1200;115070;-74
2021/11/22 05:35:49;;;;;;;62.28;25.73;;;;;;;5.82;100.00;100399.84;714517;1200;114271;-74
2021/11/22 05:50:55;;;;;;;36.60;16.38;;;;;;;5.62;100.00;100423.73;714342;1199;114473;-74
2021/11/22 06:05:58;;;;;;;53.88;20.83;;;;;;;5.43;100.00;100432.73;717004;1165;113964;-75
2021/11/22 06:21:00;;;;;;;133.67;50.37;;;;;;;5.20;100.00;100456.77;713918;1199;116131;-76
2021/11/22 06:36:03;;;;;;;150.15;47.95;;;;;;;5.06;100.00;100481.88;713803;1200;114326;-74
2021/11/22 06:51:06;;;;;;;44.03;16.40;;;;;;;4.90;100.00;100499.36;713650;1200;115657;-73
2021/11/22 07:06:09;;;;;;;30.75;11.10;;;;;;;4.75;100.00;100520.16;713743;1177;114577;-73
2021/11/22 07:21:11;;;;;;;73.83;26.78;;;;;;;4.68;100.00;100537.02;714178;1200;114852;-80
2021/11/22 07:36:13;;;;;;;81.30;29.23;;;;;;;4.65;100.00;100550.21;714365;1200;114847;-86
2021/11/22 07:51:16;;;;;;;54.03;22.03;;;;;;;4.87;100.00;100557.58;714189;1200;114407;-79
2021/11/22 08:06:20;;;;;;;38.03;19.70;;;;;;;5.70;100.00;100579.42;714061;1200;115094;-81
2021/11/22 08:21:22;;;;;;;44.78;23.60;;;;;;;6.92;100.00;100595.83;714314;1202;114539;-84
2021/11/22 08:36:34;;;;;;;16.30;10.13;;;;;;;7.95;100.00;100610.49;714334;1200;114533;-83
2021/11/22 08:51:40;;;;;;;24.98;11.15;;;;;;;9.36;100.00;100629.71;714665;1200;114783;-82
2021/11/22 09:06:42;;;;;;;16.03;8.30;;;;;;;10.19;100.00;100658.16;713929;1176;113964;-82
2021/11/22 09:21:45;;;;;;;49.95;18.83;;;;;;;10.76;100.00;100659.65;714238;1200;114774;-86
2021/11/22 09:36:48;;;;;;;15.05;6.80;;;;;;;10.74;100.00;100658.11;714889;1200;114686;-84
2021/11/22 09:51:51;;;;;;;17.73;7.05;;;;;;;11.13;100.00;100667.06;718329;1200;115623;-85
2021/11/22 10:06:57;;;;;;;13.93;7.58;;;;;;;10.08;98.63;100674.77;714201;1205;114814;-82
2021/11/22 10:21:59;;;;;;;26.15;8.80;;;;;;;9.63;97.21;100673.03;714314;1199;114456;-82
2021/11/22 10:37:08;;;;;;;12.48;8.20;;;;;;;9.88;96.62;100668.48;714072;1204;113608;-87
2021/11/22 10:52:34;;;;;;;15.63;9.38;;;;;;;9.13;97.02;100687.28;714193;1200;114593;-86
2021/11/22 11:07:38;;;;;;;25.75;10.30;;;;;;;8.88;97.08;100708.38;714432;1200;114081;-80
2021/11/22 11:22:41;;;;;;;11.23;5.63;;;;;;;7.90;95.00;100709.25;716357;1200;115160;-85
2021/11/22 11:38:18;;;;;;;8.88;5.43;;;;;;;7.83;96.30;100704.45;716348;1202;115146;-87
2021/11/22 11:53:20;;;;;;;20.63;10.88;;;;;;;7.80;97.25;100715.13;715245;1200;113952;-84
2021/11/22 12:08:29;;;;;;;21.50;10.03;;;;;;;7.97;97.89;100734.84;715476;1199;115041;-81
2021/11/22 12:23:42;;;;;;;79.93;26.50;;;;;;;7.88;98.95;100742.47;715801;1201;115835;-83
2021/11/22 12:38:46;;;;;;;42.35;18.10;;;;;;;7.74;99.12;100738.22;715613;1178;114459;-82
2021/11/22 12:54:03;;;;;;;20.58;14.38;;;;;;;7.76;98.30;100751.99;715296;1200;113874;-81
2021/11/22 13:09:11;;;;;;;67.98;25.08;;;;;;;7.28;100.00;100752.61;715026;1202;113860;-83
2021/11/22 13:24:27;;;;;;;41.50;19.63;;;;;;;7.08;100.00;100753.94;715221;1200;113870;-85
2021/11/22 13:39:32;;;;;;;71.55;30.70;;;;;;;6.85;100.00;100768.47;715150;1200;114279;-84
2021/11/22 13:54:35;;;;;;;34.23;17.53;;;;;;;6.75;100.00;100782.10;715024;1196;114466;-85
2021/11/22 14:09:41;;;;;;;42.90;18.53;;;;;;;6.69;100.00;100798.16;715060;1201;114816;-81
2021/11/22 14:24:56;;;;;;;58.08;26.45;;;;;;;6.75;100.00;100802.14;715278;1199;114128;-87
2021/11/22 14:40:02;;;;;;;41.13;16.83;;;;;;;6.82;100.00;100826.88;717803;1174;114017;-86
2021/11/22 14:55:17;;;;;;;55.68;29.83;;;;;;;6.76;100.00;100822.08;715219;1200;115250;-86
2021/11/22 15:10:20;;;;;;;47.70;20.57;;;;;;;6.74;100.00;100832.58;714972;1202;114005;-86
2021/11/22 15:25:23;;;;;;;29.00;15.87;;;;;;;6.43;100.00;100836.29;715099;1200;113869;-88
2021/11/22 15:40:25;;;;;;;62.20;33.90;;;;;;;6.49;100.00;100844.56;715414;1178;116199;-88
2021/11/22 15:55:29;;;;;;;62.63;25.80;;;;;;;6.50;100.00;100846.22;715345;1200;113852;-86
2021/11/22 16:10:32;;;;;;;76.18;29.83;;;;;;;6.49;100.00;100851.53;715589;1186;113269;-87
2021/11/22 16:25:35;;;;;;;85.55;33.03;;;;;;;6.30;100.00;100872.69;715161;1176;113997;-79
2021/11/22 16:40:37;;;;;;;49.23;20.57;;;;;;;6.25;100.00;100872.13;715353;1200;114331;-79
2021/11/22 16:55:47;;;;;;;247.33;76.03;;;;;;;5.74;100.00;100883.75;715225;1200;114331;-80
2021/11/22 17:10:50;;;;;;;222.20;84.27;;;;;;;5.56;100.00;100910.84;715022;1178;115102;-78
2021/11/22 17:25:53;;;;;;;296.67;103.93;;;;;;;5.20;100.00;100927.58;715074;1203;114718;-78
2021/11/22 17:40:56;;;;;;;96.05;42.05;;;;;;;5.09;100.00;100936.80;715524;1177;114338;-78
2021/11/22 17:55:59;;;;;;;249.63;92.53;;;;;;;4.81;100.00;100927.08;715008;1175;114462;-77
2021/11/22 18:11:04;;;;;;;126.55;51.75;;;;;;;4.55;100.00;100926.69;715473;1177;115132;-77
2021/11/22 18:26:08;;;;;;;156.25;56.88;;;;;;;4.27;100.00;100928.13;715048;1205;114067;-80
2021/11/22 18:41:12;;;;;;;64.88;29.85;;;;;;;3.93;100.00;100929.86;715964;1200;114221;-90
2021/11/22 18:56:14;;;;;;;70.50;33.20;;;;;;;3.56;100.00;100944.61;715522;1199;113986;-87
2021/11/22 19:11:17;;;;;;;136.70;58.25;;;;;;;3.25;100.00;100969.42;715895;1200;115087;-86
2021/11/22 19:26:19;;;;;;;69.23;31.27;;;;;;;2.90;100.00;100966.67;715596;1176;114218;-79
2021/11/22 19:41:22;;;;;;;149.95;57.58;;;;;;;2.89;100.00;100985.75;715295;1200;113890;-78
2021/11/22 19:56:26;;;;;;;88.23;38.58;;;;;;;2.95;100.00;100989.81;715396;1200;114655;-82
2021/11/22 20:11:29;;;;;;;102.30;37.38;;;;;;;2.94;100.00;100996.77;714839;1177;113838;-72
2021/11/22 20:26:32;;;;;;;125.65;46.30;;;;;;;3.11;100.00;101003.75;714810;1179;114698;-73
2021/11/22 20:41:35;;;;;;;92.48;34.40;;;;;;;3.16;100.00;101025.13;717483;1199;114339;-72
2021/11/22 20:56:42;;;;;;;61.35;25.15;;;;;;;3.01;100.00;101010.28;714250;1203;113971;-73
2021/11/22 21:11:48;;;;;;;85.43;28.93;;;;;;;3.00;100.00;101017.20;713825;1183;115722;-73
2021/11/22 21:26:51;;;;;;;46.10;21.20;;;;;;;2.89;100.00;101003.03;713875;1200;114633;-74
2021/11/22 21:41:54;;;;;;;106.08;34.68;;;;;;;2.95;100.00;101019.16;713830;1176;114124;-74
2021/11/22 21:56:57;;;;;;;126.75;37.55;;;;;;;3.04;100.00;101017.08;714019;1177;114211;-72
2021/11/22 22:12:04;;;;;;;52.18;23.20;;;;;;;3.00;100.00;101016.38;714320;1200;114703;-72
2021/11/22 22:27:12;;;;;;;40.23;17.18;;;;;;;2.97;100.00;101006.98;714272;1178;114677;-73
2021/11/22 22:42:14;;;;;;;36.83;15.78;;;;;;;2.75;100.00;101001.07;713872;1199;115525;-74
2021/11/22 22:57:17;;;;;;;48.90;19.90;;;;;;;2.52;100.00;101002.05;713839;1177;114062;-73
2021/11/22 23:12:21;;;;;;;100.80;30.60;;;;;;;2.35;100.00;100982.05;713837;1178;114184;-74
2021/11/22 23:27:24;;;;;;;68.05;20.73;;;;;;;2.08;100.00;100969.38;713698;1175;115798;-73
2021/11/22 23:42:27;;;;;;;65.00;24.68;;;;;;;2.00;100.00;100967.09;713776;1177;113994;-73
2021/11/22 23:57:29;;;;;;;42.83;16.58;;;;;;;1.70;100.00;100962.25;713794;1200;114007;-74
